createdAt,value
2018-03-11T00:00:44.240Z,99.99
2018-03-11T00:01:44.191Z,99.99
2018-03-11T00:02:44.251Z,99.99
2018-03-11T00:03:44.104Z,99.99
2018-03-11T00:04:44.365Z,99.99
2018-03-11T00:05:44.019Z,99.99
2018-03-11T00:06:43.978Z,99.99
2018-03-11T00:07:43.935Z,99.99
2018-03-11T00:08:43.892Z,99.99
2018-03-11T00:09:43.852Z,99.99
2018-03-11T00:10:43.808Z,99.99
2018-03-11T00:11:44.067Z,99.99
2018-03-11T00:12:43.729Z,99.99
2018-03-11T00:13:43.782Z,99.99
2018-03-11T00:14:43.687Z,99.99
2018-03-11T00:15:43.600Z,99.99
2018-03-11T00:16:43.556Z,99.99
2018-03-11T00:17:43.514Z,99.99
2018-03-11T00:18:43.772Z,99.99
2018-03-11T00:19:43.481Z,99.99
2018-03-11T00:20:43.391Z,99.99
2018-03-11T00:21:43.345Z,99.99
2018-03-11T00:22:43.304Z,99.99
2018-03-11T00:23:43.262Z,99.99
2018-03-11T00:24:43.519Z,99.99
2018-03-11T00:25:43.178Z,99.99
2018-03-11T00:26:43.140Z,99.99
2018-03-11T00:27:43.096Z,99.99
2018-03-11T00:28:43.050Z,99.99
2018-03-11T00:29:43.013Z,99.99
2018-03-11T00:30:43.267Z,99.99
2018-03-11T00:31:42.922Z,99.99
2018-03-11T00:32:42.881Z,99.99
2018-03-11T00:33:42.844Z,99.99
2018-03-11T00:34:42.845Z,99.99
2018-03-11T00:35:42.956Z,99.99
2018-03-11T00:36:43.013Z,99.99
2018-03-11T00:37:42.669Z,99.99
2018-03-11T00:38:42.630Z,99.99
2018-03-11T00:39:42.586Z,99.99
2018-03-11T00:40:42.543Z,99.99
2018-03-11T00:41:42.607Z,99.99
2018-03-11T00:42:42.761Z,99.99
2018-03-11T00:43:42.419Z,99.99
2018-03-11T00:44:42.376Z,99.99
2018-03-11T00:45:42.333Z,99.99
2018-03-11T00:46:42.290Z,99.99
2018-03-11T00:47:42.305Z,99.99
2018-03-11T00:48:42.507Z,99.99
2018-03-11T00:49:42.167Z,99.99
2018-03-11T00:50:42.128Z,99.99
2018-03-11T00:51:42.079Z,99.99
2018-03-11T00:52:42.043Z,99.99
2018-03-11T00:53:41.994Z,99.99
2018-03-11T00:54:41.953Z,99.99
2018-03-11T00:55:42.211Z,99.99
2018-03-11T00:56:41.869Z,99.99
2018-03-11T00:57:41.830Z,99.99
2018-03-11T00:58:41.784Z,99.99
2018-03-11T00:59:41.746Z,99.99
2018-03-11T01:00:41.700Z,99.99
2018-03-11T01:01:41.657Z,99.99
2018-03-11T01:02:41.914Z,99.99
2018-03-11T01:03:41.622Z,99.99
2018-03-11T01:04:41.535Z,99.99
2018-03-11T01:05:41.488Z,99.99
2018-03-11T01:06:41.448Z,99.99
2018-03-11T01:07:41.433Z,99.99
2018-03-11T01:08:41.362Z,99.99
2018-03-11T01:09:41.621Z,99.99
2018-03-11T01:10:41.280Z,99.99
2018-03-11T01:11:41.235Z,99.99
2018-03-11T01:12:41.194Z,99.99
2018-03-11T01:13:41.150Z,99.99
2018-03-11T01:14:41.114Z,99.99
2018-03-11T01:15:41.083Z,99.99
2018-03-11T01:16:41.343Z,99.99
2018-03-11T01:17:40.981Z,99.99
2018-03-11T01:18:40.944Z,99.99
2018-03-11T01:19:40.905Z,99.99
2018-03-11T01:20:40.859Z,99.99
2018-03-11T01:21:40.814Z,99.99
2018-03-11T01:22:40.771Z,99.99
2018-03-11T01:23:41.030Z,99.99
2018-03-11T01:24:40.689Z,99.99
2018-03-11T01:25:40.645Z,99.99
2018-03-11T01:26:40.604Z,99.99
2018-03-11T01:27:40.565Z,99.99
2018-03-11T01:28:40.523Z,99.99
2018-03-11T01:29:40.488Z,99.99
2018-03-11T01:30:40.837Z,99.99
2018-03-11T01:31:40.394Z,99.99
2018-03-11T01:32:40.354Z,99.99
2018-03-11T01:33:40.309Z,99.99
2018-03-11T01:34:40.271Z,99.99
2018-03-11T01:35:40.230Z,99.99
2018-03-11T01:36:40.583Z,99.99
2018-03-11T01:37:40.147Z,99.99
2018-03-11T01:38:40.099Z,99.99
2018-03-11T01:39:40.057Z,99.99
2018-03-11T01:40:40.015Z,99.99
2018-03-11T01:41:39.971Z,99.99
2018-03-11T01:42:40.483Z,99.99
2018-03-11T01:43:39.888Z,99.99
2018-03-11T01:44:39.853Z,99.99
2018-03-11T01:45:39.808Z,99.99
2018-03-11T01:46:39.761Z,99.99
2018-03-11T01:47:39.720Z,99.99
2018-03-11T01:48:39.980Z,99.99
2018-03-11T01:49:39.636Z,99.99
2018-03-11T01:50:39.595Z,99.99
2018-03-11T01:51:39.563Z,99.99
2018-03-11T01:52:39.513Z,99.99
2018-03-11T01:53:39.472Z,99.99
2018-03-11T01:54:39.727Z,99.99
2018-03-11T01:55:39.384Z,99.99
2018-03-11T01:56:39.352Z,99.99
2018-03-11T01:57:39.298Z,99.99
2018-03-11T01:58:39.259Z,99.99
2018-03-11T01:59:39.216Z,99.99
2018-03-11T02:00:39.476Z,99.99
2018-03-11T02:01:39.134Z,99.99
2018-03-11T02:02:39.103Z,99.99
2018-03-11T02:03:39.053Z,99.99
2018-03-11T02:04:39.008Z,99.99
2018-03-11T02:05:38.961Z,99.99
2018-03-11T02:06:38.921Z,99.99
2018-03-11T02:07:39.179Z,99.99
2018-03-11T02:08:38.841Z,99.99
2018-03-11T02:09:38.796Z,99.99
2018-03-11T02:10:38.756Z,99.99
2018-03-11T02:11:38.715Z,99.99
2018-03-11T02:12:38.671Z,99.99
2018-03-11T02:13:38.628Z,99.99
2018-03-11T02:14:38.887Z,99.99
2018-03-11T02:15:38.544Z,99.99
2018-03-11T02:16:38.507Z,99.99
2018-03-11T02:17:38.460Z,99.99
2018-03-11T02:18:38.420Z,99.99
2018-03-11T02:19:38.375Z,99.99
2018-03-11T02:20:38.334Z,99.99
2018-03-11T02:21:38.600Z,99.99
2018-03-11T02:22:38.250Z,99.99
2018-03-11T02:23:38.207Z,99.99
2018-03-11T02:24:38.166Z,99.99
2018-03-11T02:25:38.129Z,99.99
2018-03-11T02:26:38.093Z,99.99
2018-03-11T02:27:38.045Z,99.99
2018-03-11T02:28:38.300Z,99.99
2018-03-11T02:29:37.957Z,99.99
2018-03-11T02:30:37.917Z,99.99
2018-03-11T02:31:37.879Z,99.99
2018-03-11T02:32:37.831Z,99.99
2018-03-11T02:33:37.840Z,99.99
2018-03-11T02:34:37.757Z,99.99
2018-03-11T02:35:38.012Z,99.99
2018-03-11T02:36:37.664Z,99.99
2018-03-11T02:37:37.624Z,99.99
2018-03-11T02:38:37.584Z,99.99
2018-03-11T02:39:37.586Z,99.99
2018-03-11T02:40:37.496Z,99.99
2018-03-11T02:41:37.453Z,99.99
2018-03-11T02:42:37.711Z,99.99
2018-03-11T02:43:37.375Z,99.99
2018-03-11T02:44:37.343Z,99.99
2018-03-11T02:45:37.443Z,99.99
2018-03-11T02:46:37.251Z,99.99
2018-03-11T02:47:37.218Z,99.99
2018-03-11T02:48:37.468Z,99.99
2018-03-11T02:49:37.125Z,99.99
2018-03-11T02:50:37.085Z,99.99
2018-03-11T02:51:37.041Z,99.99
2018-03-11T02:52:37.010Z,99.99
2018-03-11T02:53:36.956Z,99.99
2018-03-11T02:54:37.226Z,99.99
2018-03-11T02:55:36.873Z,99.99
2018-03-11T02:56:36.831Z,99.99
2018-03-11T02:57:36.794Z,99.99
2018-03-11T02:58:36.747Z,99.99
2018-03-11T02:59:36.706Z,99.99
2018-03-11T03:00:36.965Z,99.99
2018-03-11T03:01:36.622Z,99.99
2018-03-11T03:02:36.578Z,99.99
2018-03-11T03:03:36.542Z,99.99
2018-03-11T03:04:36.495Z,99.99
2018-03-11T03:05:36.452Z,99.99
2018-03-11T03:06:36.710Z,99.99
2018-03-11T03:07:36.371Z,99.99
2018-03-11T03:08:36.325Z,99.99
2018-03-11T03:09:36.281Z,99.99
2018-03-11T03:10:36.239Z,99.99
2018-03-11T03:11:36.197Z,99.99
2018-03-11T03:12:36.470Z,99.99
2018-03-11T03:13:36.116Z,99.99
2018-03-11T03:14:36.120Z,99.99
2018-03-11T03:15:36.059Z,99.99
2018-03-11T03:16:36.030Z,99.99
2018-03-11T03:17:35.943Z,99.99
2018-03-11T03:18:36.201Z,99.99
2018-03-11T03:19:35.858Z,99.99
2018-03-11T03:20:35.816Z,99.99
2018-03-11T03:21:35.772Z,99.99
2018-03-11T03:22:35.731Z,99.99
2018-03-11T03:23:35.692Z,99.99
2018-03-11T03:24:35.645Z,99.99
2018-03-11T03:25:35.900Z,99.99
2018-03-11T03:26:35.757Z,99.99
2018-03-11T03:27:35.514Z,99.99
2018-03-11T03:28:35.478Z,99.99
2018-03-11T03:29:35.430Z,99.99
2018-03-11T03:30:35.389Z,99.99
2018-03-11T03:31:35.352Z,99.99
2018-03-11T03:32:35.652Z,99.99
2018-03-11T03:33:35.262Z,99.99
2018-03-11T03:34:35.216Z,99.99
2018-03-11T03:35:35.172Z,99.99
2018-03-11T03:36:35.134Z,99.99
2018-03-11T03:37:35.090Z,99.99
2018-03-11T03:38:35.096Z,99.99
2018-03-11T03:39:35.298Z,99.99
2018-03-11T03:40:34.957Z,99.99
2018-03-11T03:41:34.913Z,99.99
2018-03-11T03:42:34.873Z,99.99
2018-03-11T03:43:34.827Z,99.99
2018-03-11T03:44:34.785Z,99.99
2018-03-11T03:45:34.745Z,99.99
2018-03-11T03:46:34.997Z,99.99
2018-03-11T03:47:34.657Z,99.99
2018-03-11T03:48:34.615Z,99.99
2018-03-11T03:49:34.568Z,99.99
2018-03-11T03:50:34.523Z,99.99
2018-03-11T03:51:34.481Z,99.99
2018-03-11T03:52:34.437Z,99.99
2018-03-11T03:53:34.692Z,99.99
2018-03-11T03:54:34.350Z,99.99
2018-03-11T03:55:34.311Z,99.99
2018-03-11T03:56:34.276Z,99.99
2018-03-11T03:57:34.224Z,99.99
2018-03-11T03:58:34.178Z,99.99
2018-03-11T03:59:34.432Z,99.99
2018-03-11T04:00:34.088Z,99.99
2018-03-11T04:01:34.046Z,99.99
2018-03-11T04:02:34.002Z,99.99
2018-03-11T04:03:33.959Z,99.99
2018-03-11T04:04:33.915Z,99.99
2018-03-11T04:05:34.171Z,99.99
2018-03-11T04:06:33.827Z,99.99
2018-03-11T04:07:33.782Z,99.99
2018-03-11T04:08:33.739Z,99.99
2018-03-11T04:09:33.748Z,99.99
2018-03-11T04:10:33.654Z,99.99
2018-03-11T04:11:33.910Z,99.99
2018-03-11T04:12:33.564Z,99.99
2018-03-11T04:13:33.526Z,99.99
2018-03-11T04:14:33.478Z,99.99
2018-03-11T04:15:33.534Z,99.99
2018-03-11T04:16:33.388Z,99.99
2018-03-11T04:17:33.644Z,99.99
2018-03-11T04:18:33.302Z,99.99
2018-03-11T04:19:33.258Z,99.99
2018-03-11T04:20:33.222Z,99.99
2018-03-11T04:21:33.171Z,99.99
2018-03-11T04:22:33.132Z,99.99
2018-03-11T04:23:33.386Z,99.99
2018-03-11T04:24:33.039Z,99.99
2018-03-11T04:25:32.995Z,99.99
2018-03-11T04:26:32.951Z,99.99
2018-03-11T04:27:32.913Z,99.99
2018-03-11T04:28:32.864Z,99.99
2018-03-11T04:29:33.121Z,99.99
2018-03-11T04:30:32.787Z,99.99
2018-03-11T04:31:32.734Z,99.99
2018-03-11T04:32:32.688Z,99.99
2018-03-11T04:33:32.670Z,99.99
2018-03-11T04:34:32.600Z,99.99
2018-03-11T04:35:32.557Z,99.99
2018-03-11T04:36:32.812Z,99.99
2018-03-11T04:37:32.466Z,99.99
2018-03-11T04:38:32.430Z,99.99
2018-03-11T04:39:32.381Z,99.99
2018-03-11T04:40:32.338Z,99.99
2018-03-11T04:41:32.291Z,99.99
2018-03-11T04:42:32.298Z,99.99
2018-03-11T04:43:32.509Z,99.99
2018-03-11T04:44:32.163Z,99.99
2018-03-11T04:45:32.114Z,99.99
2018-03-11T04:46:32.077Z,99.99
2018-03-11T04:47:32.029Z,99.99
2018-03-11T04:48:32.041Z,99.99
2018-03-11T04:49:31.941Z,99.99
2018-03-11T04:50:32.199Z,99.99
2018-03-11T04:51:31.854Z,99.99
2018-03-11T04:52:31.810Z,99.99
2018-03-11T04:53:31.762Z,99.99
2018-03-11T04:54:31.718Z,99.99
2018-03-11T04:55:31.675Z,99.99
2018-03-11T04:56:31.634Z,99.99
2018-03-11T04:57:31.886Z,99.99
2018-03-11T04:58:31.542Z,99.99
2018-03-11T04:59:31.502Z,99.99
2018-03-11T05:00:31.455Z,99.99
2018-03-11T05:01:31.413Z,99.99
2018-03-11T05:02:31.367Z,99.99
2018-03-11T05:03:31.323Z,99.99
2018-03-11T05:04:31.581Z,99.99
2018-03-11T05:05:31.234Z,99.99
2018-03-11T05:06:31.240Z,99.99
2018-03-11T05:07:31.148Z,99.99
2018-03-11T05:08:31.103Z,99.99
2018-03-11T05:09:31.059Z,99.99
2018-03-11T05:10:31.312Z,99.99
2018-03-11T05:11:30.969Z,99.99
2018-03-11T05:12:30.924Z,99.99
2018-03-11T05:13:30.885Z,99.99
2018-03-11T05:14:31.037Z,99.99
2018-03-11T05:15:30.792Z,99.99
2018-03-11T05:16:31.051Z,99.99
2018-03-11T05:17:30.753Z,99.99
2018-03-11T05:18:30.665Z,99.99
2018-03-11T05:19:30.614Z,99.99
2018-03-11T05:20:30.725Z,99.99
2018-03-11T05:21:30.531Z,99.99
2018-03-11T05:22:30.784Z,99.99
2018-03-11T05:23:30.438Z,99.99
2018-03-11T05:24:30.396Z,99.99
2018-03-11T05:25:30.349Z,99.99
2018-03-11T05:26:30.314Z,99.99
2018-03-11T05:27:30.264Z,99.99
2018-03-11T05:28:30.525Z,99.99
2018-03-11T05:29:30.175Z,99.99
2018-03-11T05:30:30.130Z,99.99
2018-03-11T05:31:30.141Z,99.99
2018-03-11T05:32:30.041Z,99.99
2018-03-11T05:33:29.998Z,99.99
2018-03-11T05:34:30.251Z,99.99
2018-03-11T05:35:29.907Z,99.99
2018-03-11T05:36:29.862Z,99.99
2018-03-11T05:37:29.819Z,99.99
2018-03-11T05:38:29.773Z,99.99
2018-03-11T05:39:29.747Z,99.99
2018-03-11T05:40:29.986Z,99.99
2018-03-11T05:41:29.643Z,99.99
2018-03-11T05:42:29.601Z,99.99
2018-03-11T05:43:29.550Z,99.99
2018-03-11T05:44:29.520Z,99.99
2018-03-11T05:45:29.467Z,99.99
2018-03-11T05:46:29.419Z,99.99
2018-03-11T05:47:29.673Z,99.99
2018-03-11T05:48:29.337Z,99.99
2018-03-11T05:49:29.284Z,99.99
2018-03-11T05:50:29.240Z,99.99
2018-03-11T05:51:29.196Z,99.99
2018-03-11T05:52:29.158Z,99.99
2018-03-11T05:53:29.162Z,99.99
2018-03-11T05:54:29.363Z,99.99
2018-03-11T05:55:29.016Z,99.99
2018-03-11T05:56:28.971Z,99.99
2018-03-11T05:57:28.928Z,99.99
2018-03-11T05:58:28.886Z,99.99
2018-03-11T05:59:28.838Z,99.99
2018-03-11T06:00:28.804Z,99.99
2018-03-11T06:01:29.048Z,99.99
2018-03-11T06:02:28.714Z,99.99
2018-03-11T06:03:28.666Z,99.99
2018-03-11T06:04:28.621Z,99.99
2018-03-11T06:05:28.570Z,99.99
2018-03-11T06:06:28.525Z,99.99
2018-03-11T06:07:28.532Z,99.99
2018-03-11T06:08:28.737Z,99.99
2018-03-11T06:09:28.392Z,99.99
2018-03-11T06:10:28.355Z,99.99
2018-03-11T06:11:28.310Z,99.99
2018-03-11T06:12:28.259Z,99.99
2018-03-11T06:13:28.265Z,99.99
2018-03-11T06:14:28.169Z,99.99
2018-03-11T06:15:28.426Z,99.99
2018-03-11T06:16:28.082Z,99.99
2018-03-11T06:17:28.037Z,99.99
2018-03-11T06:18:27.993Z,99.99
2018-03-11T06:19:27.951Z,99.99
2018-03-11T06:20:27.910Z,99.99
2018-03-11T06:21:28.158Z,99.99
2018-03-11T06:22:27.820Z,99.99
2018-03-11T06:23:27.773Z,99.99
2018-03-11T06:24:27.726Z,99.99
2018-03-11T06:25:27.682Z,99.99
2018-03-11T06:26:27.675Z,99.99
2018-03-11T06:27:27.895Z,99.99
2018-03-11T06:28:27.550Z,99.99
2018-03-11T06:29:27.509Z,99.99
2018-03-11T06:30:27.461Z,99.99
2018-03-11T06:31:27.419Z,99.99
2018-03-11T06:32:27.430Z,99.99
2018-03-11T06:33:27.634Z,99.99
2018-03-11T06:34:27.286Z,99.99
2018-03-11T06:35:27.242Z,99.99
2018-03-11T06:36:27.208Z,99.99
2018-03-11T06:37:27.155Z,99.99
2018-03-11T06:38:27.110Z,99.99
2018-03-11T06:39:27.366Z,99.99
2018-03-11T06:40:27.031Z,99.99
2018-03-11T06:41:26.977Z,99.99
2018-03-11T06:42:26.936Z,99.99
2018-03-11T06:43:26.893Z,99.99
2018-03-11T06:44:26.850Z,99.99
2018-03-11T06:45:27.105Z,99.99
2018-03-11T06:46:26.765Z,99.99
2018-03-11T06:47:27.716Z,99.99
2018-03-11T06:48:26.861Z,99.99
2018-03-11T06:49:26.815Z,99.99
2018-03-11T06:50:26.871Z,99.99
2018-03-11T06:51:27.051Z,99.99
2018-03-11T06:52:26.636Z,99.99
2018-03-11T06:53:26.842Z,99.99
2018-03-11T06:54:26.811Z,99.99
2018-03-11T06:55:26.587Z,99.99
2018-03-11T06:56:26.441Z,99.99
2018-03-11T06:57:26.446Z,99.99
2018-03-11T06:58:26.723Z,99.99
2018-03-11T06:59:26.295Z,99.99
2018-03-11T07:00:26.157Z,99.99
2018-03-11T07:01:26.113Z,99.99
2018-03-11T07:02:26.075Z,99.99
2018-03-11T07:03:26.037Z,99.99
2018-03-11T07:04:25.987Z,99.99
2018-03-11T07:05:26.242Z,99.99
2018-03-11T07:06:25.899Z,99.99
2018-03-11T07:07:25.856Z,99.99
2018-03-11T07:08:25.814Z,99.99
2018-03-11T07:09:25.780Z,99.99
2018-03-11T07:10:25.729Z,99.99
2018-03-11T07:11:25.684Z,99.99
2018-03-11T07:12:25.973Z,99.99
2018-03-11T07:13:25.600Z,99.99
2018-03-11T07:14:25.564Z,99.99
2018-03-11T07:15:25.516Z,99.99
2018-03-11T07:16:25.474Z,99.99
2018-03-11T07:17:25.437Z,99.99
2018-03-11T07:18:25.389Z,99.99
2018-03-11T07:19:25.644Z,99.99
2018-03-11T07:20:25.304Z,99.99
2018-03-11T07:21:25.259Z,99.99
2018-03-11T07:22:25.219Z,99.99
2018-03-11T07:23:25.197Z,99.99
2018-03-11T07:24:25.134Z,99.99
2018-03-11T07:25:25.092Z,99.99
2018-03-11T07:26:25.350Z,99.99
2018-03-11T07:27:25.008Z,99.99
2018-03-11T07:28:24.971Z,99.99
2018-03-11T07:29:24.924Z,99.99
2018-03-11T07:30:24.884Z,99.99
2018-03-11T07:31:24.845Z,99.99
2018-03-11T07:32:24.815Z,99.99
2018-03-11T07:33:25.061Z,99.99
2018-03-11T07:34:24.715Z,99.99
2018-03-11T07:35:24.670Z,99.99
2018-03-11T07:36:24.631Z,99.99
2018-03-11T07:37:24.588Z,99.99
2018-03-11T07:38:24.546Z,99.99
2018-03-11T07:39:24.808Z,99.99
2018-03-11T07:40:24.515Z,99.99
2018-03-11T07:41:24.434Z,99.99
2018-03-11T07:42:24.388Z,99.99
2018-03-11T07:43:24.346Z,99.99
2018-03-11T07:44:24.300Z,99.99
2018-03-11T07:45:24.560Z,99.99
2018-03-11T07:46:24.267Z,99.99
2018-03-11T07:47:24.178Z,99.99
2018-03-11T07:48:24.140Z,99.99
2018-03-11T07:49:24.100Z,99.99
2018-03-11T07:50:24.055Z,99.99
2018-03-11T07:51:24.314Z,99.99
2018-03-11T07:52:23.980Z,99.99
2018-03-11T07:53:23.934Z,99.99
2018-03-11T07:54:23.893Z,99.99
2018-03-11T07:55:23.853Z,99.99
2018-03-11T07:56:23.821Z,99.99
2018-03-11T07:57:24.073Z,99.99
2018-03-11T07:58:23.736Z,99.99
2018-03-11T07:59:23.691Z,99.99
2018-03-11T08:00:23.651Z,99.99
2018-03-11T08:01:23.610Z,99.99
2018-03-11T08:02:23.569Z,99.99
2018-03-11T08:03:23.830Z,99.99
2018-03-11T08:04:23.489Z,99.99
2018-03-11T08:05:23.449Z,99.99
2018-03-11T08:06:23.414Z,99.99
2018-03-11T08:07:23.367Z,99.99
2018-03-11T08:08:23.332Z,99.99
2018-03-11T08:09:23.286Z,99.99
2018-03-11T08:10:23.545Z,99.99
2018-03-11T08:11:23.205Z,99.99
2018-03-11T08:12:23.221Z,99.99
2018-03-11T08:13:23.124Z,99.99
2018-03-11T08:14:23.094Z,99.99
2018-03-11T08:15:23.047Z,99.99
2018-03-11T08:16:23.005Z,99.14
2018-03-11T08:17:23.270Z,98.38
2018-03-11T08:18:22.926Z,98.52
2018-03-11T08:19:22.882Z,97.75
2018-03-11T08:20:22.846Z,97.80
2018-03-11T08:21:22.803Z,94.17
2018-03-11T08:22:22.762Z,90.72
2018-03-11T08:23:22.723Z,91.05
2018-03-11T08:24:22.985Z,88.84
2018-03-11T08:25:22.645Z,87.88
2018-03-11T08:26:22.617Z,87.74
2018-03-11T08:27:22.571Z,87.50
2018-03-11T08:28:22.534Z,90.48
2018-03-11T08:29:22.494Z,92.01
2018-03-11T08:30:22.455Z,94.84
2018-03-11T08:31:22.819Z,96.13
2018-03-11T08:32:22.382Z,97.33
2018-03-11T08:33:22.345Z,98.85
2018-03-11T08:34:22.309Z,99.99
2018-03-11T08:35:22.268Z,99.99
2018-03-11T08:36:22.432Z,99.99
2018-03-11T08:37:22.190Z,99.99
2018-03-11T08:38:22.457Z,99.99
2018-03-11T08:39:22.115Z,99.99
2018-03-11T08:40:22.080Z,99.99
2018-03-11T08:41:22.041Z,99.99
2018-03-11T08:42:22.048Z,99.99
2018-03-11T08:43:21.961Z,99.99
2018-03-11T08:44:21.930Z,99.99
2018-03-11T08:45:22.184Z,99.99
2018-03-11T08:46:22.042Z,99.99
2018-03-11T08:47:21.858Z,99.99
2018-03-11T08:48:21.798Z,99.99
2018-03-11T08:49:21.722Z,99.99
2018-03-11T08:50:21.687Z,99.99
2018-03-11T08:51:22.043Z,99.99
2018-03-11T08:52:21.602Z,99.99
2018-03-11T08:53:21.560Z,99.99
2018-03-11T08:54:21.571Z,99.99
2018-03-11T08:55:21.483Z,99.99
2018-03-11T08:56:21.692Z,99.99
2018-03-11T08:57:21.697Z,99.99
2018-03-11T08:58:21.358Z,99.99
2018-03-11T08:59:21.341Z,99.99
2018-03-11T09:00:21.281Z,99.99
2018-03-11T09:01:21.293Z,99.99
2018-03-11T09:02:21.196Z,99.99
2018-03-11T09:03:21.455Z,99.99
2018-03-11T09:04:21.366Z,99.99
2018-03-11T09:05:21.080Z,99.99
2018-03-11T09:06:21.035Z,99.99
2018-03-11T09:07:20.991Z,99.99
2018-03-11T09:08:20.950Z,99.99
2018-03-11T09:09:21.208Z,99.99
2018-03-11T09:10:20.897Z,99.99
2018-03-11T09:11:20.880Z,99.99
2018-03-11T09:12:20.988Z,99.99
2018-03-11T09:13:20.745Z,99.99
2018-03-11T09:14:20.753Z,99.99
2018-03-11T09:15:20.963Z,99.99
2018-03-11T09:16:20.671Z,99.99
2018-03-11T09:17:20.628Z,99.99
2018-03-11T09:18:20.539Z,99.99
2018-03-11T09:19:20.558Z,99.99
2018-03-11T09:20:20.461Z,99.99
2018-03-11T09:21:20.462Z,99.99
2018-03-11T09:22:20.728Z,99.99
2018-03-11T09:23:20.336Z,99.99
2018-03-11T09:24:20.298Z,99.99
2018-03-11T09:25:20.253Z,99.99
2018-03-11T09:26:20.210Z,99.99
2018-03-11T09:27:20.223Z,99.99
2018-03-11T09:28:20.140Z,99.99
2018-03-11T09:29:20.387Z,99.99
2018-03-11T09:30:20.052Z,99.99
2018-03-11T09:31:20.053Z,99.99
2018-03-11T09:32:20.015Z,99.99
2018-03-11T09:33:19.923Z,99.99
2018-03-11T09:34:19.886Z,99.99
2018-03-11T09:35:19.847Z,99.99
2018-03-11T09:36:20.098Z,99.99
2018-03-11T09:37:19.765Z,99.99
2018-03-11T09:38:19.769Z,99.99
2018-03-11T09:39:19.824Z,99.99
2018-03-11T09:40:19.708Z,99.99
2018-03-11T09:41:19.593Z,99.99
2018-03-11T09:42:19.575Z,99.99
2018-03-11T09:43:19.822Z,99.99
2018-03-11T09:44:19.471Z,99.99
2018-03-11T09:45:19.532Z,99.99
2018-03-11T09:46:19.388Z,99.99
2018-03-11T09:47:19.347Z,99.99
2018-03-11T09:48:19.310Z,99.99
2018-03-11T09:49:19.314Z,99.99
2018-03-11T09:50:19.526Z,99.99
2018-03-11T09:51:19.236Z,99.99
2018-03-11T09:52:19.293Z,99.99
2018-03-11T09:53:19.101Z,99.99
2018-03-11T09:54:19.107Z,99.99
2018-03-11T09:55:19.067Z,99.99
2018-03-11T09:56:19.028Z,99.99
2018-03-11T09:57:19.282Z,99.99
2018-03-11T09:58:18.890Z,99.99
2018-03-11T09:59:18.900Z,99.99
2018-03-11T10:00:18.861Z,99.99
2018-03-11T10:01:18.969Z,99.99
2018-03-11T10:02:18.800Z,99.99
2018-03-11T10:03:18.991Z,99.99
2018-03-11T10:04:18.799Z,99.99
2018-03-11T10:05:18.652Z,99.99
2018-03-11T10:06:18.566Z,99.99
2018-03-11T10:07:18.571Z,99.99
2018-03-11T10:08:18.486Z,99.99
2018-03-11T10:09:18.741Z,99.99
2018-03-11T10:10:18.499Z,99.99
2018-03-11T10:11:18.362Z,99.99
2018-03-11T10:12:18.321Z,99.99
2018-03-11T10:13:18.276Z,99.99
2018-03-11T10:14:18.341Z,99.86
2018-03-11T10:15:18.494Z,99.10
2018-03-11T10:16:18.376Z,99.38
2018-03-11T10:17:18.316Z,99.57
2018-03-11T10:18:18.073Z,99.38
2018-03-11T10:19:18.081Z,99.57
2018-03-11T10:20:18.045Z,99.99
2018-03-11T10:21:18.300Z,99.99
2018-03-11T10:22:17.960Z,99.99
2018-03-11T10:23:17.869Z,99.96
2018-03-11T10:24:17.930Z,99.99
2018-03-11T10:25:17.843Z,99.99
2018-03-11T10:26:17.798Z,99.99
2018-03-11T10:27:18.058Z,99.99
2018-03-11T10:28:17.672Z,99.99
2018-03-11T10:29:17.675Z,99.99
2018-03-11T10:30:17.641Z,99.99
2018-03-11T10:31:17.596Z,99.99
2018-03-11T10:32:17.662Z,99.96
2018-03-11T10:33:17.770Z,99.86
2018-03-11T10:34:17.474Z,99.99
2018-03-11T10:35:17.533Z,99.99
2018-03-11T10:36:17.346Z,99.99
2018-03-11T10:37:17.506Z,99.99
2018-03-11T10:38:17.359Z,99.99
2018-03-11T10:39:17.279Z,99.99
2018-03-11T10:40:17.548Z,99.76
2018-03-11T10:41:17.142Z,99.99
2018-03-11T10:42:17.165Z,99.24
2018-03-11T10:43:17.068Z,99.05
2018-03-11T10:44:17.226Z,99.33
2018-03-11T10:45:17.131Z,98.86
2018-03-11T10:46:16.990Z,98.76
2018-03-11T10:47:17.352Z,98.38
2018-03-11T10:48:16.861Z,98.28
2018-03-11T10:49:16.871Z,98.95
2018-03-11T10:50:16.834Z,99.52
2018-03-11T10:51:16.742Z,98.86
2018-03-11T10:52:17.003Z,98.57
2018-03-11T10:53:16.665Z,99.43
2018-03-11T10:54:16.970Z,97.90
2018-03-11T10:55:16.633Z,98.95
2018-03-11T10:56:16.841Z,98.38
2018-03-11T10:57:16.550Z,98.86
2018-03-11T10:58:16.462Z,99.05
2018-03-11T10:59:16.422Z,99.24
2018-03-11T11:00:16.437Z,99.62
2018-03-11T11:01:16.776Z,99.33
2018-03-11T11:02:16.388Z,99.99
2018-03-11T11:03:16.331Z,99.99
2018-03-11T11:04:16.455Z,99.99
2018-03-11T11:05:16.362Z,99.99
2018-03-11T11:06:16.171Z,99.99
2018-03-11T11:07:16.153Z,99.99
2018-03-11T11:08:16.362Z,99.99
2018-03-11T11:09:16.072Z,99.99
2018-03-11T11:10:16.040Z,99.91
2018-03-11T11:11:15.940Z,99.91
2018-03-11T11:12:15.949Z,99.62
2018-03-11T11:13:15.859Z,99.00
2018-03-11T11:14:16.173Z,99.38
2018-03-11T11:15:15.991Z,99.00
2018-03-11T11:16:15.741Z,98.52
2018-03-11T11:17:15.696Z,97.38
2018-03-11T11:18:15.658Z,97.75
2018-03-11T11:19:15.678Z,97.47
2018-03-11T11:20:15.927Z,97.56
2018-03-11T11:21:15.545Z,97.75
2018-03-11T11:22:15.557Z,97.38
2018-03-11T11:23:15.510Z,97.47
2018-03-11T11:24:15.479Z,96.22
2018-03-11T11:25:15.440Z,96.42
2018-03-11T11:26:15.662Z,95.94
2018-03-11T11:27:15.348Z,96.99
2018-03-11T11:28:15.311Z,95.46
2018-03-11T11:29:15.269Z,95.84
2018-03-11T11:30:15.184Z,94.84
2018-03-11T11:31:15.213Z,95.22
2018-03-11T11:32:15.447Z,95.03
2018-03-11T11:33:15.107Z,94.35
2018-03-11T11:34:15.077Z,93.21
2018-03-11T11:35:15.133Z,92.82
2018-03-11T11:36:14.939Z,92.82
2018-03-11T11:37:14.945Z,92.49
2018-03-11T11:38:15.157Z,91.43
2018-03-11T11:39:14.867Z,91.19
2018-03-11T11:40:14.833Z,89.75
2018-03-11T11:41:14.740Z,88.79
2018-03-11T11:42:14.748Z,89.37
2018-03-11T11:43:14.710Z,88.17
2018-03-11T11:44:14.983Z,87.21
2018-03-11T11:45:14.632Z,84.99
2018-03-11T11:46:14.543Z,80.79
2018-03-11T11:47:14.554Z,77.56
2018-03-11T11:48:14.527Z,74.45
2018-03-11T11:49:14.481Z,73.78
2018-03-11T11:50:14.443Z,73.78
2018-03-11T11:51:14.660Z,73.26
2018-03-11T11:52:14.382Z,74.63
2018-03-11T11:53:14.336Z,78.25
2018-03-11T11:54:14.301Z,78.15
2018-03-11T11:55:14.313Z,77.04
2018-03-11T11:56:14.199Z,76.31
2018-03-11T11:57:14.204Z,75.88
2018-03-11T11:58:14.462Z,77.48
2018-03-11T11:59:14.288Z,77.71
2018-03-11T12:00:14.095Z,76.40
2018-03-11T12:01:14.014Z,73.58
2018-03-11T12:02:14.030Z,73.74
2018-03-11T12:03:14.001Z,74.96
2018-03-11T12:04:14.113Z,75.24
2018-03-11T12:05:14.428Z,74.34
2018-03-11T12:06:13.846Z,76.23
2018-03-11T12:07:13.965Z,78.30
2018-03-11T12:08:13.879Z,78.21
2018-03-11T12:09:14.098Z,79.36
2018-03-11T12:10:13.775Z,79.36
2018-03-11T12:11:13.689Z,78.30
2018-03-11T12:12:14.060Z,78.92
2018-03-11T12:13:13.663Z,78.15
2018-03-11T12:14:13.584Z,77.58
2018-03-11T12:15:13.595Z,75.79
2018-03-11T12:16:13.518Z,75.59
2018-03-11T12:17:13.529Z,75.27
2018-03-11T12:18:13.589Z,74.92
2018-03-11T12:19:13.809Z,74.09
2018-03-11T12:20:13.427Z,73.77
2018-03-11T12:21:13.341Z,73.84
2018-03-11T12:22:13.353Z,71.85
2018-03-11T12:23:13.319Z,71.08
2018-03-11T12:24:13.237Z,70.31
2018-03-11T12:25:13.265Z,70.02
2018-03-11T12:26:13.471Z,71.34
2018-03-11T12:27:13.187Z,71.20
2018-03-11T12:28:13.108Z,71.65
2018-03-11T12:29:13.073Z,74.30
2018-03-11T12:30:13.038Z,75.71
2018-03-11T12:31:13.001Z,75.90
2018-03-11T12:32:13.275Z,77.25
2018-03-11T12:33:13.083Z,77.34
2018-03-11T12:34:12.977Z,77.15
2018-03-11T12:35:12.919Z,77.25
2018-03-11T12:36:12.836Z,75.94
2018-03-11T12:37:12.898Z,75.71
2018-03-11T12:38:13.113Z,75.32
2018-03-11T12:39:12.732Z,75.52
2018-03-11T12:40:12.742Z,75.52
2018-03-11T12:41:12.659Z,75.04
2018-03-11T12:42:12.672Z,75.07
2018-03-11T12:43:12.638Z,74.85
2018-03-11T12:44:12.850Z,74.75
2018-03-11T12:45:12.718Z,74.37
2018-03-11T12:46:12.478Z,73.60
2018-03-11T12:47:12.643Z,74.17
2018-03-11T12:48:12.460Z,74.90
2018-03-11T12:49:12.380Z,75.77
2018-03-11T12:50:12.689Z,76.12
2018-03-11T12:51:12.299Z,76.69
2018-03-11T12:52:12.318Z,76.12